Terminal Aerodrome Forecast
Issued by NWS

Home | Current Version | Previous Version | Text Only | Print | Product List | Glossary Off
Versions: 1 2 3 4 5 6 7 8 9 10 11 12 13 14

971
FTUS45 KGGW 241723
TAFSDY
TAF
KSDY 241723Z 2418/2518 34012KT 6SM BR VCSH OVC007
     FM241900 34018G26KT 4SM SHRA SCT002 OVC005
     FM250100 32022G32KT 6SM -SHRA SCT005 OVC009
     FM250900 31017G25KT P6SM VCSH FEW030 SCT100
     FM251200 30013KT P6SM FEW200=

USA.gov is the U.S. government's official web portal to all federal, state and local government web resources and services.